Westward Ho — XPXS — position and weather

sailwx.info

Track history (hours):
 
Tides and Currents Weather Stations Pressure Air Temp Water Temp Dewpoint Dewpoint Depression Visibility Wind Speed Wind Dir Waves Ship Positions

Westward Ho

Last reported at 2017-Jun-19 18:42 UTC. Time now 2017-Jun-25 00:24 UTC.
Position N 56°30' W 005°43'.

Length 23 m; draft 3.4 m.

Type: Diving. MMSI: 231374000.

Date/timePositionNaut miles runAvg speedWind from/ knotsBaromVisibWave heightAir tempDewpointWater temp
2017-Jun-19 18:42N 56°30' W 005°43'1 6.6
2017-Jun-19 18:30N 56°29' W 005°41'3 6.5
2017-Jun-19 18:00N 56°27' W 005°36'4 7.4
2017-Jun-19 17:30N 56°26' W 005°30'10 0.4
2017-Jun-18 12:22N 56°36' W 005°27'3 7.0
2017-Jun-18 12:00N 56°38' W 005°24'4 7.2
2017-Jun-18 11:30N 56°40' W 005°19'3 6.9
2017-Jun-18 11:00N 56°43' W 005°15'3 6.6
2017-Jun-18 10:30N 56°46' W 005°12'3 6.3
2017-Jun-18 10:00N 56°48' W 005°09'  
2017-Jun-11 23:46N 58°30' W 002°47'2 7.7
2017-Jun-11 23:30N 58°31' W 002°46'4 7.8
2017-Jun-11 23:00N 58°35' W 002°44'4 7.5
2017-Jun-11 22:30N 58°39' W 002°42'4 7.5
2017-Jun-11 22:00N 58°43' W 002°40'4 7.1
2017-Jun-11 21:30N 58°46' W 002°39'3 7.0
2017-Jun-11 21:00N 58°50' W 002°38'4 7.1
2017-Jun-11 20:30N 58°53' W 002°38'4 7.5
2017-Jun-11 20:00N 58°57' W 002°38'3 6.7
2017-Jun-11 19:30N 58°60' W 002°42'4 7.2
2017-Jun-11 19:00N 59°01' W 002°49'3 7.0
2017-Jun-11 18:31N 59°01' W 002°55'2 4.4
2017-Jun-11 18:00N 58°59' W 002°58'0 0.1
2017-Jun-11 17:30N 58°59' W 002°58'0 0.0
2017-Jun-11 17:00N 58°59' W 002°58'0 0.0
2017-Jun-11 16:30N 58°59' W 002°58'0 0.0
2017-Jun-11 16:00N 58°59' W 002°58'0 0.0
2017-Jun-11 15:30N 58°59' W 002°58'0 0.0
2017-Jun-11 15:00N 58°59' W 002°58'0 0.0
2017-Jun-11 14:30N 58°59' W 002°58'0 0.0
2017-Jun-11 13:30N 58°59' W 002°58'0 0.0
2017-Jun-11 13:00N 58°59' W 002°58'0 0.0
2017-Jun-11 12:30N 58°59' W 002°58'0 0.0
2017-Jun-11 12:00N 58°59' W 002°58'0 0.0
2017-Jun-11 11:30N 58°59' W 002°58'0 0.0
2017-Jun-11 11:00N 58°59' W 002°58'0 0.0
2017-Jun-11 10:30N 58°59' W 002°58'0 0.0
2017-Jun-11 10:00N 58°59' W 002°58'0 0.0
2017-Jun-11 09:30N 58°59' W 002°58'0 0.0
2017-Jun-11 09:00N 58°59' W 002°58'0 0.0
2017-Jun-11 08:30N 58°59' W 002°58'1 1.3
2017-Jun-11 08:00N 58°60' W 002°57'2 3.2
2017-Jun-11 07:30N 59°01' W 002°56'1 2.2
2017-Jun-11 07:00N 59°01' W 002°54'3 7.0
2017-Jun-11 06:30N 59°01' W 002°48'4 7.1
2017-Jun-11 06:00N 59°04' W 002°45'3 6.3
2017-Jun-11 05:30N 59°07' W 002°48'2 4.7
2017-Jun-11 05:00N 59°09' W 002°50'2 3.3
2017-Jun-11 04:30N 59°10' W 002°52'1 2.1
2017-Jun-11 04:00N 59°11' W 002°53'1 2.1
2017-Jun-11 03:30N 59°12' W 002°55'2 3.1
2017-Jun-11 03:00N 59°12' W 002°58'2 3.1
2017-Jun-11 02:30N 59°13' W 003°00'2 3.7
2017-Jun-11 02:00N 59°14' W 003°03'  
Track history (hours):
 
Tides and Currents Weather Stations Pressure Air Temp Water Temp Dewpoint Dewpoint Depression Visibility Wind Speed Wind Dir Waves Ship Positions

Westward Ho

Last reported at 2017-Jun-19 18:42 UTC. Time now 2017-Jun-25 00:24 UTC.
Position N 56°30' W 005°43'.

Length 23 m; draft 3.4 m.

Type: Diving. MMSI: 231374000.

Date/timePositionNaut miles runAvg speedWind from/ knotsBaromVisibWave heightAir tempDewpointWater temp
2017-Jun-19 18:42N 56°30' W 005°43'1 6.6
2017-Jun-19 18:30N 56°29' W 005°41'3 6.5
2017-Jun-19 18:00N 56°27' W 005°36'4 7.4
2017-Jun-19 17:30N 56°26' W 005°30'10 0.4
2017-Jun-18 12:22N 56°36' W 005°27'3 7.0
2017-Jun-18 12:00N 56°38' W 005°24'4 7.2
2017-Jun-18 11:30N 56°40' W 005°19'3 6.9
2017-Jun-18 11:00N 56°43' W 005°15'3 6.6
2017-Jun-18 10:30N 56°46' W 005°12'3 6.3
2017-Jun-18 10:00N 56°48' W 005°09'  
2017-Jun-11 23:46N 58°30' W 002°47'2 7.7
2017-Jun-11 23:30N 58°31' W 002°46'4 7.8
2017-Jun-11 23:00N 58°35' W 002°44'4 7.5
2017-Jun-11 22:30N 58°39' W 002°42'4 7.5
2017-Jun-11 22:00N 58°43' W 002°40'4 7.1
2017-Jun-11 21:30N 58°46' W 002°39'3 7.0
2017-Jun-11 21:00N 58°50' W 002°38'4 7.1
2017-Jun-11 20:30N 58°53' W 002°38'4 7.5
2017-Jun-11 20:00N 58°57' W 002°38'3 6.7
2017-Jun-11 19:30N 58°60' W 002°42'4 7.2
2017-Jun-11 19:00N 59°01' W 002°49'3 7.0
2017-Jun-11 18:31N 59°01' W 002°55'2 4.4
2017-Jun-11 18:00N 58°59' W 002°58'0 0.1
2017-Jun-11 17:30N 58°59' W 002°58'0 0.0
2017-Jun-11 17:00N 58°59' W 002°58'0 0.0
2017-Jun-11 16:30N 58°59' W 002°58'0 0.0
2017-Jun-11 16:00N 58°59' W 002°58'0 0.0
2017-Jun-11 15:30N 58°59' W 002°58'0 0.0
2017-Jun-11 15:00N 58°59' W 002°58'0 0.0
2017-Jun-11 14:30N 58°59' W 002°58'0 0.0
2017-Jun-11 13:30N 58°59' W 002°58'0 0.0
2017-Jun-11 13:00N 58°59' W 002°58'0 0.0
2017-Jun-11 12:30N 58°59' W 002°58'0 0.0
2017-Jun-11 12:00N 58°59' W 002°58'0 0.0
2017-Jun-11 11:30N 58°59' W 002°58'0 0.0
2017-Jun-11 11:00N 58°59' W 002°58'0 0.0
2017-Jun-11 10:30N 58°59' W 002°58'0 0.0
2017-Jun-11 10:00N 58°59' W 002°58'0 0.0
2017-Jun-11 09:30N 58°59' W 002°58'0 0.0
2017-Jun-11 09:00N 58°59' W 002°58'0 0.0
2017-Jun-11 08:30N 58°59' W 002°58'1 1.3
2017-Jun-11 08:00N 58°60' W 002°57'2 3.2
2017-Jun-11 07:30N 59°01' W 002°56'1 2.2
2017-Jun-11 07:00N 59°01' W 002°54'3 7.0
2017-Jun-11 06:30N 59°01' W 002°48'4 7.1
2017-Jun-11 06:00N 59°04' W 002°45'3 6.3
2017-Jun-11 05:30N 59°07' W 002°48'2 4.7
2017-Jun-11 05:00N 59°09' W 002°50'2 3.3
2017-Jun-11 04:30N 59°10' W 002°52'1 2.1
2017-Jun-11 04:00N 59°11' W 002°53'1 2.1
2017-Jun-11 03:30N 59°12' W 002°55'2 3.1
2017-Jun-11 03:00N 59°12' W 002°58'2 3.1
2017-Jun-11 02:30N 59°13' W 003°00'2 3.7
2017-Jun-11 02:00N 59°14' W 003°03'  

Dump ship's entire track history